Time;durP1;ratioP1;P1;durP2;ratioP2;P2;SDS_P1;SDS_P2;PMS_P1;PMS_P2;Temp;Humidity;BMP_temperature;BMP_pressure;BME280_temperature;BME280_humidity;BME280_pressure;Samples;Min_cycle;Max_cycle;Signal;HPM_P1;HPM_P2
2021/07/15 00:01:31;;;;;;;24.18;5.17;;;;;;;18.33;63.87;100802.70;1680979;84;20236;-68
2021/07/15 00:04:04;;;;;;;27.77;5.08;;;;;;;18.27;64.11;100802.87;1691370;83;21333;-68
2021/07/15 00:06:39;;;;;;;14.70;3.95;;;;;;;18.25;64.39;100804.05;1697990;83;21283;-68
2021/07/15 00:09:15;;;;;;;;;;;;;;;18.21;64.56;100802.25;1683462;84;21215;-68
2021/07/15 00:11:49;;;;;;;30.43;5.05;;;;;;;18.17;64.61;100803.08;1695538;83;20289;-68
2021/07/15 00:14:25;;;;;;;20.95;4.87;;;;;;;18.11;64.73;100802.45;1693530;84;21194;-68
2021/07/15 00:16:59;;;;;;;21.45;4.75;;;;;;;18.07;64.91;100804.30;1679020;84;21180;-68
2021/07/15 00:19:33;;;;;;;;;;;;;;;18.07;65.08;100798.51;1690710;83;21178;-68
2021/07/15 00:22:06;;;;;;;22.67;4.97;;;;;;;18.08;65.24;100797.98;1691322;84;20232;-67
2021/07/15 00:24:40;;;;;;;23.52;5.12;;;;;;;18.06;65.38;100801.31;1688991;84;21166;-66
2021/07/15 00:27:13;;;;;;;27.13;4.97;;;;;;;18.06;65.49;100799.49;1692447;84;21292;-67
2021/07/15 00:29:46;;;;;;;20.60;4.40;;;;;;;18.07;65.58;100802.97;1676467;84;21184;-67
2021/07/15 00:32:20;;;;;;;19.95;4.95;;;;;;;18.04;65.74;100809.44;1698237;84;21196;-67
2021/07/15 00:34:56;;;;;;;20.27;4.42;;;;;;;18.05;65.81;100811.11;1677047;84;21155;-68
2021/07/15 00:37:29;;;;;;;19.45;4.20;;;;;;;18.04;65.83;100805.95;1675726;84;21374;-67
2021/07/15 00:40:02;;;;;;;23.20;4.80;;;;;;;18.05;65.86;100811.59;1685908;84;21295;-69
2021/07/15 00:42:35;;;;;;;;;;;;;;;18.01;65.88;100807.13;1684473;83;21142;-68
2021/07/15 00:45:10;;;;;;;31.65;4.47;;;;;;;18.00;65.95;100811.28;1690846;84;20288;-69
2021/07/15 00:47:46;;;;;;;23.70;4.90;;;;;;;17.96;66.04;100816.08;1683028;84;21880;-67
2021/07/15 00:50:21;;;;;;;22.13;4.90;;;;;;;17.95;66.15;100809.63;1657204;85;21231;-67
2021/07/15 00:52:54;;;;;;;27.07;4.65;;;;;;;17.94;66.25;100809.30;1671094;83;21296;-67
2021/07/15 00:55:33;;;;;;;22.50;4.62;;;;;;;17.94;66.33;100813.27;1667989;84;21272;-67
2021/07/15 00:58:08;;;;;;;20.20;4.80;;;;;;;17.91;66.40;100812.30;1683401;83;21743;-67
2021/07/15 01:00:44;;;;;;;17.65;4.85;;;;;;;17.90;66.53;100810.64;1700736;83;21305;-67
2021/07/15 01:03:19;;;;;;;23.65;4.70;;;;;;;17.90;66.62;100818.09;1692574;83;21184;-69
2021/07/15 01:05:57;;;;;;;20.92;4.83;;;;;;;17.91;66.70;100821.58;1692260;84;21145;-68
2021/07/15 01:08:30;;;;;;;26.33;5.30;;;;;;;17.92;66.64;100824.53;1690130;83;21319;-67
2021/07/15 01:11:29;;;;;;;25.85;4.37;;;;;;;17.90;66.56;100812.80;1701045;83;21161;-67
2021/07/15 01:14:10;;;;;;;22.50;4.45;;;;;;;17.87;66.60;100815.77;1677783;84;21248;-67
2021/07/15 01:17:05;;;;;;;18.50;4.20;;;;;;;17.85;66.69;100821.74;1693794;83;21291;-68
2021/07/15 01:19:50;;;;;;;19.87;4.22;;;;;;;17.83;66.74;100826.39;1697387;84;21192;-66
2021/07/15 01:22:56;;;;;;;21.37;4.87;;;;;;;17.83;66.74;100821.58;1679085;84;21300;-68
2021/07/15 01:25:43;;;;;;;17.32;4.92;;;;;;;17.82;66.63;100821.23;1679192;84;21217;-67
2021/07/15 01:28:55;;;;;;;23.65;5.25;;;;;;;17.79;66.51;100814.45;1679157;84;21154;-66
2021/07/15 01:31:29;;;;;;;19.25;5.00;;;;;;;17.76;66.31;100812.17;1700961;84;21208;-65
2021/07/15 01:34:03;;;;;;;17.03;5.97;;;;;;;17.73;66.35;100812.98;1685267;84;21284;-65
2021/07/15 01:36:36;;;;;;;11.70;4.65;;;;;;;17.71;66.45;100817.14;1677287;84;21196;-67
2021/07/15 01:39:10;;;;;;;17.07;4.55;;;;;;;17.71;66.47;100808.36;1697709;84;21312;-70
2021/07/15 01:41:48;;;;;;;13.88;4.58;;;;;;;17.71;66.47;100809.69;1689369;84;21332;-68
2021/07/15 01:44:29;;;;;;;20.70;5.03;;;;;;;17.70;66.41;100809.34;1672631;84;21170;-66
2021/07/15 01:47:02;;;;;;;22.55;4.95;;;;;;;17.69;66.48;100807.22;1690556;83;21289;-66
2021/07/15 01:49:35;;;;;;;;;;;;;;;17.69;66.37;100812.52;1680133;84;21296;-67
2021/07/15 01:52:08;;;;;;;19.48;8.13;;;;;;;17.69;66.38;100809.87;1685004;84;20578;-66
2021/07/15 01:54:43;;;;;;;17.67;6.03;;;;;;;17.68;66.40;100807.37;1687109;84;21233;-67
2021/07/15 01:57:16;;;;;;;22.15;5.28;;;;;;;17.69;66.38;100809.87;1701374;84;21312;-66
2021/07/15 01:59:49;;;;;;;17.23;5.12;;;;;;;17.72;66.27;100812.68;1693645;84;21279;-66
2021/07/15 02:02:24;;;;;;;20.48;5.62;;;;;;;17.74;66.23;100817.30;1681741;84;21307;-66
2021/07/15 02:04:57;;;;;;;20.48;5.28;;;;;;;17.75;66.26;100809.18;1694771;84;21202;-66
2021/07/15 02:07:31;;;;;;;28.25;6.67;;;;;;;17.77;66.27;100807.19;1689469;84;21831;-66
2021/07/15 02:10:10;;;;;;;19.65;6.22;;;;;;;17.80;66.36;100804.20;1684320;84;21276;-66
2021/07/15 02:12:43;;;;;;;18.48;5.55;;;;;;;17.83;66.38;100810.50;1688883;84;21300;-66
2021/07/15 02:15:18;;;;;;;22.87;6.33;;;;;;;17.88;66.34;100807.34;1679363;84;21173;-67
2021/07/15 02:17:52;;;;;;;21.93;6.00;;;;;;;17.93;66.36;100807.66;1692893;84;21209;-67
2021/07/15 02:20:26;;;;;;;26.62;6.20;;;;;;;17.98;66.40;100803.48;1690188;84;21155;-67
2021/07/15 02:22:59;;;;;;;25.85;7.33;;;;;;;18.06;66.39;100806.12;1695632;84;21185;-67
2021/07/15 02:25:32;;;;;;;;;;;;;;;18.15;66.37;100809.55;1702760;84;21161;-66
2021/07/15 02:28:08;;;;;;;27.80;9.35;;;;;;;18.24;66.29;100804.57;1694984;84;20240;-66
2021/07/15 02:30:44;;;;;;;31.33;9.00;;;;;;;18.31;66.21;100802.05;1697303;84;21181;-67
2021/07/15 02:33:20;;;;;;;27.90;9.70;;;;;;;18.41;66.03;100806.65;1701144;84;21391;-67
2021/07/15 02:35:55;;;;;;;30.12;8.05;;;;;;;18.54;65.80;100806.93;1672486;84;21328;-66
2021/07/15 02:38:28;;;;;;;28.85;9.90;;;;;;;18.69;65.62;100810.01;1685565;84;21775;-67
2021/07/15 02:41:02;;;;;;;26.15;9.35;;;;;;;18.86;65.33;100808.08;1684011;84;21212;-67
2021/07/15 02:43:35;;;;;;;31.48;10.30;;;;;;;19.01;64.97;100808.14;1684779;84;21300;-67
2021/07/15 02:46:08;;;;;;;27.00;7.60;;;;;;;19.15;64.63;100808.20;1672153;84;21827;-67
2021/07/15 02:48:43;;;;;;;34.58;8.38;;;;;;;19.31;64.14;100812.54;1693913;84;21816;-67
2021/07/15 02:51:17;;;;;;;23.10;7.30;;;;;;;19.43;63.61;100814.62;1678068;84;21295;-67
2021/07/15 02:53:50;;;;;;;26.90;9.40;;;;;;;19.56;63.14;100815.84;1685826;84;21405;-67
2021/07/15 02:56:42;;;;;;;25.02;8.58;;;;;;;19.65;62.91;100816.91;1691068;84;21312;-67
2021/07/15 02:59:49;;;;;;;25.25;8.40;;;;;;;19.76;62.83;100817.79;1688644;84;21204;-68
2021/07/15 03:02:33;;;;;;;28.05;8.95;;;;;;;19.87;62.51;100816.53;1680197;84;21295;-68
2021/07/15 03:05:19;;;;;;;24.55;8.73;;;;;;;19.96;62.54;100816.76;1684976;84;21286;-67
2021/07/15 03:08:09;;;;;;;19.02;8.55;;;;;;;20.10;62.51;100822.08;1674417;84;21327;-68
2021/07/15 03:10:42;;;;;;;22.77;7.70;;;;;;;20.27;62.25;100816.09;1690783;84;21190;-68
2021/07/15 03:13:15;;;;;;;21.07;8.43;;;;;;;20.49;61.73;100815.65;1684374;84;21172;-67
2021/07/15 03:15:48;;;;;;;;;;;;;;;20.69;61.02;100803.37;1682205;84;21177;-68
2021/07/15 03:18:23;;;;;;;20.23;7.67;;;;;;;20.87;60.53;100809.12;1692442;84;20199;-67
2021/07/15 03:20:58;;;;;;;19.42;8.03;;;;;;;21.05;60.20;100810.02;1680747;84;21331;-67
2021/07/15 03:23:31;;;;;;;24.60;8.30;;;;;;;21.27;59.88;100809.84;1686318;84;21862;-68
2021/07/15 03:26:04;;;;;;;22.70;7.95;;;;;;;21.52;59.17;100810.76;1697103;84;21403;-67
2021/07/15 03:28:39;;;;;;;21.37;8.48;;;;;;;21.76;58.58;100808.45;1693786;84;21158;-68
2021/07/15 03:31:12;;;;;;;20.92;8.05;;;;;;;22.04;57.95;100807.14;1684208;84;21328;-67
2021/07/15 03:33:46;;;;;;;21.95;7.70;;;;;;;22.36;57.33;100814.45;1681892;84;21291;-68
2021/07/15 03:36:18;;;;;;;20.47;7.87;;;;;;;22.68;56.72;100812.47;1701308;84;21296;-68
2021/07/15 03:38:52;;;;;;;22.42;9.18;;;;;;;23.00;56.01;100806.07;1696013;84;22022;-68
2021/07/15 03:41:25;;;;;;;27.85;9.95;;;;;;;23.39;54.92;100802.10;1699225;83;21292;-67
2021/07/15 03:43:59;;;;;;;20.27;9.43;;;;;;;23.80;53.85;100810.70;1687213;84;21818;-67
2021/07/15 03:46:33;;;;;;;23.35;8.40;;;;;;;24.22;52.88;100807.23;1685484;83;21193;-68
2021/07/15 03:49:06;;;;;;;;;;;;;;;24.67;51.77;100809.69;1692239;84;21326;-68
2021/07/15 03:51:38;;;;;;;17.50;8.40;;;;;;;25.16;50.76;100798.28;1678467;84;20256;-68
2021/07/15 03:54:12;;;;;;;;;;;;;;;25.64;49.57;100809.25;1683772;84;21189;-71
2021/07/15 03:56:45;;;;;;;18.87;8.93;;;;;;;26.15;48.63;100804.11;1699179;83;20227;-70
2021/07/15 03:59:19;;;;;;;20.68;7.97;;;;;;;26.70;47.31;100798.95;1677969;84;21161;-70
2021/07/15 04:02:04;;;;;;;18.07;7.72;;;;;;;27.26;46.35;100806.08;1702077;84;21177;-69
2021/07/15 04:04:37;;;;;;;21.05;8.70;;;;;;;27.89;45.05;100804.89;1683992;84;21328;-70
2021/07/15 04:07:10;;;;;;;25.97;8.35;;;;;;;28.56;43.64;100803.88;1694179;84;21223;-70
2021/07/15 04:09:44;;;;;;;24.60;8.25;;;;;;;29.17;42.21;100805.80;1696934;84;21165;-67
2021/07/15 04:12:22;;;;;;;29.63;8.10;;;;;;;29.69;40.88;100800.44;1692378;84;21148;-68
2021/07/15 04:15:15;;;;;;;30.08;7.92;;;;;;;30.19;39.66;100796.27;1677138;83;21203;-71
2021/07/15 04:17:57;;;;;;;17.20;7.60;;;;;;;30.61;38.71;100799.23;1671471;84;21320;-67
2021/07/15 04:20:31;;;;;;;16.85;7.53;;;;;;;31.12;38.13;100797.86;1680117;84;21211;-68
2021/07/15 04:23:05;;;;;;;22.70;8.28;;;;;;;31.68;36.90;100796.38;1682036;84;21853;-70
2021/07/15 04:25:39;;;;;;;23.95;8.28;;;;;;;32.21;35.97;100798.03;1679523;84;21287;-71
2021/07/15 04:28:11;;;;;;;;;;;;;;;32.75;35.05;100799.83;1679803;84;21204;-70
2021/07/15 04:31:04;;;;;;;16.27;7.17;;;;;;;33.22;34.20;100795.03;1690556;83;20320;-69
2021/07/15 04:33:37;;;;;;;17.00;7.42;;;;;;;33.65;33.38;100799.07;1676680;84;21279;-70
2021/07/15 04:36:10;;;;;;;16.85;7.47;;;;;;;34.14;32.56;100805.98;1701128;83;21360;-71
2021/07/15 04:38:44;;;;;;;19.52;6.62;;;;;;;34.51;32.05;100803.08;1700799;84;21233;-71
2021/07/15 04:41:16;;;;;;;21.48;6.85;;;;;;;34.95;31.51;100804.45;1686056;84;21304;-71
2021/07/15 04:43:50;;;;;;;16.07;5.97;;;;;;;35.40;30.96;100795.11;1681439;84;21314;-72
2021/07/15 04:46:23;;;;;;;23.07;6.75;;;;;;;35.84;30.37;100790.32;1676975;84;21355;-72
2021/07/15 04:48:56;;;;;;;20.70;5.92;;;;;;;36.28;29.43;100791.99;1669846;84;21226;-73
2021/07/15 04:51:29;;;;;;;15.78;5.75;;;;;;;36.66;28.63;100795.56;1672769;83;21447;-73
2021/07/15 04:54:03;;;;;;;14.65;5.78;;;;;;;36.96;28.21;100791.83;1667746;83;21719;-71
2021/07/15 04:56:37;;;;;;;17.07;5.55;;;;;;;37.31;27.54;100784.94;1664936;83;21280;-73
2021/07/15 04:59:10;;;;;;;21.15;5.95;;;;;;;37.72;26.93;100789.94;1658007;84;21224;-75
2021/07/15 05:01:45;;;;;;;14.45;5.72;;;;;;;38.08;26.50;100789.23;1659037;83;21344;-76
2021/07/15 05:04:19;;;;;;;25.80;6.40;;;;;;;38.38;26.08;100789.99;1659026;84;21450;-74
2021/07/15 05:06:52;;;;;;;19.23;5.42;;;;;;;38.73;25.67;100796.03;1628055;84;21316;-73
2021/07/15 05:09:25;;;;;;;18.20;5.20;;;;;;;39.13;24.91;100792.03;1670822;83;21439;-75
2021/07/15 05:11:58;;;;;;;11.45;4.47;;;;;;;39.53;24.55;100792.36;1677565;82;21350;-74
2021/07/15 05:14:40;;;;;;;13.30;6.17;;;;;;;39.97;23.70;100788.12;1679607;82;21366;-76
2021/07/15 05:17:08;;;;;;;11.20;4.85;;;;;;;40.45;23.32;100790.84;1661073;84;21319;-74
2021/07/15 05:19:42;;;;;;;13.90;4.53;;;;;;;40.98;22.50;100798.20;1681700;83;21787;-69
2021/07/15 05:22:16;;;;;;;11.65;4.30;;;;;;;41.39;21.89;100802.34;1672994;82;21314;-70
2021/07/15 05:24:49;;;;;;;15.25;4.35;;;;;;;41.76;21.55;100794.68;1667149;83;21196;-74
2021/07/15 05:27:22;;;;;;;10.95;4.12;;;;;;;42.13;20.75;100791.09;1683936;83;21312;-74
2021/07/15 05:29:56;;;;;;;11.08;3.80;;;;;;;42.42;20.46;100784.72;1662886;83;21233;-71
2021/07/15 05:32:29;;;;;;;6.78;3.75;;;;;;;42.73;20.19;100783.76;1673905;83;21855;-73
2021/07/15 05:35:05;;;;;;;12.23;4.17;;;;;;;43.06;19.76;100780.23;1666543;83;21409;-72
2021/07/15 05:37:40;;;;;;;9.28;3.70;;;;;;;43.36;19.26;100778.38;1676177;83;21272;-76
2021/07/15 05:40:14;;;;;;;7.10;4.00;;;;;;;43.69;18.81;100785.20;1668619;83;21252;-71
2021/07/15 05:42:48;;;;;;;9.05;3.80;;;;;;;43.95;18.57;100775.17;1676634;83;21210;-74
2021/07/15 05:45:21;;;;;;;9.28;3.33;;;;;;;44.18;18.20;100773.00;1678826;83;22266;-73
2021/07/15 05:47:54;;;;;;;12.03;3.50;;;;;;;44.48;17.55;100772.13;1682573;83;21333;-73
2021/07/15 05:50:27;;;;;;;13.20;3.52;;;;;;;44.77;17.64;100768.20;1666406;83;21839;-74
2021/07/15 05:53:00;;;;;;;16.45;3.87;;;;;;;45.09;17.15;100773.24;1689375;83;21343;-73
2021/07/15 05:55:33;;;;;;;7.20;3.40;;;;;;;45.30;17.12;100776.02;1668456;83;21272;-75
2021/07/15 05:58:06;;;;;;;10.13;3.60;;;;;;;45.56;16.93;100776.84;1662607;84;21528;-72
2021/07/15 06:00:41;;;;;;;8.33;3.37;;;;;;;45.89;16.66;100774.50;1676750;83;21342;-73
2021/07/15 06:03:14;;;;;;;5.72;3.08;;;;;;;46.23;16.14;100773.48;1668661;83;21283;-76
2021/07/15 06:05:48;;;;;;;7.62;3.17;;;;;;;46.53;15.99;100772.57;1678530;83;21204;-75
2021/07/15 06:08:23;;;;;;;14.07;3.60;;;;;;;46.77;15.60;100769.32;1674957;83;21217;-71
2021/07/15 06:10:57;;;;;;;9.83;4.00;;;;;;;46.95;15.64;100767.67;1660650;84;22397;-79
2021/07/15 06:13:30;;;;;;;7.30;3.87;;;;;;;47.13;15.51;100768.23;1681212;83;21391;-76
2021/07/15 06:16:03;;;;;;;11.45;3.95;;;;;;;47.31;15.09;100765.77;1679540;83;21428;-77
2021/07/15 06:18:36;;;;;;;9.85;4.12;;;;;;;47.42;15.29;100771.47;1688757;83;21901;-72
2021/07/15 06:21:09;;;;;;;11.05;3.90;;;;;;;47.59;15.33;100766.25;1665226;82;21330;-72
2021/07/15 06:23:42;;;;;;;15.03;3.50;;;;;;;47.87;15.00;100772.25;1617588;85;21250;-71
2021/07/15 06:26:17;;;;;;;12.47;4.15;;;;;;;48.03;14.90;100768.70;1681205;83;21174;-71
2021/07/15 06:28:50;;;;;;;10.53;3.67;;;;;;;48.21;14.70;100769.56;1666977;83;21311;-75
2021/07/15 06:31:25;;;;;;;9.35;3.42;;;;;;;48.34;14.69;100768.16;1668951;83;21318;-71
2021/07/15 06:33:59;;;;;;;17.98;4.20;;;;;;;48.41;14.65;100769.05;1663871;83;21360;-70
2021/07/15 06:36:33;;;;;;;14.83;5.00;;;;;;;48.54;14.64;100766.81;1664865;83;21180;-73
2021/07/15 06:39:06;;;;;;;10.03;3.83;;;;;;;48.68;14.42;100768.36;1678870;83;21604;-72
2021/07/15 06:41:40;;;;;;;10.70;3.95;;;;;;;48.86;14.19;100768.01;1660197;84;21416;-73
2021/07/15 06:44:13;;;;;;;8.68;3.50;;;;;;;48.98;13.94;100762.17;1666127;83;21316;-72
2021/07/15 06:46:48;;;;;;;12.98;3.50;;;;;;;49.10;13.49;100764.67;1677288;82;21748;-69
2021/07/15 06:49:27;;;;;;;12.00;3.72;;;;;;;49.26;13.40;100766.63;1677023;82;21305;-73
2021/07/15 06:52:00;;;;;;;10.30;4.05;;;;;;;49.35;13.42;100762.11;1647079;84;21243;-72
2021/07/15 06:54:34;;;;;;;8.93;4.00;;;;;;;49.50;13.62;100764.41;1669545;83;21557;-71
2021/07/15 06:57:07;;;;;;;5.60;2.90;;;;;;;49.72;13.42;100762.82;1661533;83;21745;-72
2021/07/15 06:59:41;;;;;;;11.20;3.65;;;;;;;50.03;12.70;100760.62;1659690;83;21346;-74
2021/07/15 07:02:14;;;;;;;6.83;3.37;;;;;;;50.45;12.04;100759.42;1674910;83;21811;-71
2021/07/15 07:04:49;;;;;;;8.80;3.47;;;;;;;50.63;11.49;100758.13;1661969;84;21379;-69
2021/07/15 07:07:23;;;;;;;8.15;3.55;;;;;;;50.68;11.05;100747.98;1679266;83;21312;-72
2021/07/15 07:09:57;;;;;;;8.40;3.37;;;;;;;50.75;11.09;100747.41;1683901;83;21246;-72
2021/07/15 07:12:30;;;;;;;14.30;4.45;;;;;;;50.87;11.15;100745.63;1675466;83;21402;-73
2021/07/15 07:15:05;;;;;;;17.15;4.78;;;;;;;50.92;11.30;100749.45;1677538;83;21263;-70
2021/07/15 07:17:39;;;;;;;8.45;3.22;;;;;;;50.95;11.50;100753.44;1664174;83;21767;-72
2021/07/15 07:20:13;;;;;;;6.78;3.22;;;;;;;51.13;10.50;100743.08;1666781;83;21332;-71
2021/07/15 07:22:49;;;;;;;6.72;3.00;;;;;;;51.09;9.94;100738.11;1677592;83;21344;-73
2021/07/15 07:25:22;;;;;;;13.98;3.65;;;;;;;51.15;9.89;100738.70;1659213;84;21247;-72
2021/07/15 07:27:55;;;;;;;4.12;2.67;;;;;;;51.30;10.47;100735.33;1629667;86;21848;-74
2021/07/15 07:30:29;;;;;;;10.10;3.72;;;;;;;51.38;10.25;100738.30;1629403;85;21341;-74
2021/07/15 07:33:03;;;;;;;9.40;3.47;;;;;;;51.51;10.14;100740.88;1664658;83;21180;-74
2021/07/15 07:35:37;;;;;;;6.17;3.20;;;;;;;51.55;10.37;100738.90;1664906;84;21335;-74
2021/07/15 07:38:10;;;;;;;14.75;3.90;;;;;;;51.48;10.49;100733.30;1672917;84;21276;-73
2021/07/15 07:40:44;;;;;;;9.55;3.30;;;;;;;51.40;10.09;100734.53;1667378;83;22380;-74
2021/07/15 07:43:17;;;;;;;9.03;3.30;;;;;;;51.50;9.89;100737.11;1672282;82;21334;-70
2021/07/15 07:45:49;;;;;;;8.00;2.85;;;;;;;51.52;10.10;100734.08;1681845;83;21331;-72
2021/07/15 07:48:24;;;;;;;7.35;3.02;;;;;;;51.55;10.32;100737.50;1686955;82;21252;-72
2021/07/15 07:51:00;;;;;;;6.30;2.92;;;;;;;51.68;10.20;100742.88;1679207;83;21343;-75
2021/07/15 07:53:33;;;;;;;6.30;2.47;;;;;;;51.79;9.48;100733.86;1670371;83;21275;-72
2021/07/15 07:56:06;;;;;;;8.53;2.77;;;;;;;51.75;9.14;100734.48;1671755;83;21359;-72
2021/07/15 07:58:40;;;;;;;6.30;2.45;;;;;;;51.83;8.90;100730.44;1675374;83;22155;-73
2021/07/15 08:01:13;;;;;;;3.20;2.40;;;;;;;51.58;8.61;100722.75;1662713;83;21319;-73
2021/07/15 08:03:46;;;;;;;4.10;2.40;;;;;;;51.41;8.33;100717.97;1674838;83;21307;-73
2021/07/15 08:06:19;;;;;;;2.80;2.22;;;;;;;51.47;7.60;100713.59;1671284;83;21192;-74
2021/07/15 08:08:52;;;;;;;6.30;2.50;;;;;;;51.45;7.41;100715.95;1680416;83;21363;-72
2021/07/15 08:11:26;;;;;;;4.83;2.27;;;;;;;51.30;7.91;100715.80;1681266;82;21218;-73
2021/07/15 08:13:59;;;;;;;6.35;2.33;;;;;;;51.27;7.71;100710.20;1652240;84;21194;-75
2021/07/15 08:16:33;;;;;;;3.80;2.00;;;;;;;51.29;7.66;100711.41;1682713;82;21371;-78
2021/07/15 08:19:06;;;;;;;4.65;2.08;;;;;;;51.25;7.44;100707.03;1667525;83;21392;-75
2021/07/15 08:21:39;;;;;;;5.08;1.87;;;;;;;51.21;7.66;100711.80;1669289;82;21209;-75
2021/07/15 08:24:12;;;;;;;4.45;2.10;;;;;;;51.12;7.56;100710.20;1669816;83;21335;-73
2021/07/15 08:26:46;;;;;;;9.23;2.20;;;;;;;50.93;8.09;100704.21;1689586;83;21939;-76
2021/07/15 08:29:19;;;;;;;6.37;1.77;;;;;;;50.93;7.94;100698.64;1678022;82;21282;-75
2021/07/15 08:31:52;;;;;;;4.92;2.15;;;;;;;50.71;8.22;100695.63;1687504;83;21946;-69
2021/07/15 08:34:25;;;;;;;3.70;1.85;;;;;;;50.43;8.09;100695.74;1681573;83;21310;-76
2021/07/15 08:37:02;;;;;;;9.33;2.42;;;;;;;50.31;7.92;100692.52;1657947;83;21240;-75
2021/07/15 08:39:35;;;;;;;3.15;1.57;;;;;;;50.05;8.41;100695.59;1659535;84;21323;-74
2021/07/15 08:42:09;;;;;;;6.37;1.65;;;;;;;49.85;8.57;100690.30;1663496;83;21328;-75
2021/07/15 08:44:43;;;;;;;4.20;1.47;;;;;;;49.68;9.06;100687.45;1656064;84;21339;-73
2021/07/15 08:47:17;;;;;;;6.40;1.50;;;;;;;49.43;9.12;100687.84;1683127;83;21323;-75
2021/07/15 08:49:51;;;;;;;5.95;1.60;;;;;;;49.32;9.44;100686.41;1664763;84;21339;-75
2021/07/15 08:52:25;;;;;;;3.45;1.40;;;;;;;49.25;9.63;100680.17;1685878;83;21305;-72
2021/07/15 08:55:15;;;;;;;2.47;1.40;;;;;;;49.18;9.63;100682.10;1675716;83;21399;-75
2021/07/15 08:57:35;;;;;;;2.98;1.52;;;;;;;48.97;9.50;100683.30;1672704;83;21907;-75
2021/07/15 09:00:13;;;;;;;4.42;1.60;;;;;;;48.78;9.74;100677.94;1680984;83;21351;-70
2021/07/15 09:02:46;;;;;;;6.55;1.60;;;;;;;48.58;9.99;100675.98;1665801;83;21291;-72
2021/07/15 09:05:20;;;;;;;7.15;1.85;;;;;;;48.38;9.93;100668.98;1666050;83;21814;-71
2021/07/15 09:07:54;;;;;;;8.85;1.60;;;;;;;48.20;10.27;100680.50;1636465;82;21184;-75
2021/07/15 09:10:27;;;;;;;8.63;2.05;;;;;;;47.91;10.28;100677.33;1659783;84;22575;-73
2021/07/15 09:13:02;;;;;;;2.65;1.02;;;;;;;47.57;10.15;100673.47;1676823;83;21340;-71
2021/07/15 09:15:39;;;;;;;2.70;1.20;;;;;;;47.21;10.17;100677.08;1673724;84;21193;-71
2021/07/15 09:18:13;;;;;;;3.25;1.37;;;;;;;46.96;9.83;100673.05;1667643;83;21315;-67
2021/07/15 09:20:48;;;;;;;5.95;1.70;;;;;;;46.67;9.96;100667.57;1637610;84;21212;-66
2021/07/15 09:23:21;;;;;;;4.70;1.42;;;;;;;46.43;10.24;100663.79;1610330;86;21463;-67
2021/07/15 09:25:56;;;;;;;4.42;1.10;;;;;;;46.14;10.47;100662.98;1684027;83;21241;-71
2021/07/15 09:28:31;;;;;;;4.20;1.67;;;;;;;45.92;10.90;100669.20;1660280;83;22511;-69
2021/07/15 09:31:19;;;;;;;4.75;1.30;;;;;;;45.71;11.12;100664.59;1684471;83;21209;-71
2021/07/15 09:33:52;;;;;;;4.22;1.50;;;;;;;45.50;11.15;100668.24;1660361;83;22009;-71
2021/07/15 09:36:25;;;;;;;1.67;0.98;;;;;;;45.24;11.34;100670.98;1672375;83;21354;-67
2021/07/15 09:39:02;;;;;;;3.10;1.50;;;;;;;45.02;11.57;100673.58;1629875;85;21254;-68
2021/07/15 09:41:34;;;;;;;2.17;1.20;;;;;;;44.64;11.41;100668.02;1656664;84;21341;-72
2021/07/15 09:44:07;;;;;;;3.85;1.50;;;;;;;44.21;12.32;100672.71;1670083;83;22487;-70
2021/07/15 09:46:40;;;;;;;3.98;1.40;;;;;;;43.84;12.48;100660.37;1673614;83;21656;-73
2021/07/15 09:49:13;;;;;;;3.58;1.17;;;;;;;43.47;12.52;100660.97;1675374;83;21329;-72
2021/07/15 09:51:47;;;;;;;4.47;1.50;;;;;;;43.11;13.02;100660.98;1672763;83;21184;-70
2021/07/15 09:54:20;;;;;;;6.22;1.37;;;;;;;42.81;13.22;100653.44;1621390;84;21261;-70
2021/07/15 09:56:54;;;;;;;3.77;1.50;;;;;;;42.46;13.33;100654.13;1576414;87;21259;-72
2021/07/15 09:59:28;;;;;;;3.85;1.42;;;;;;;42.07;13.65;100649.92;1676880;83;21209;-71
2021/07/15 10:02:01;;;;;;;9.88;1.50;;;;;;;41.59;13.75;100641.59;1636253;82;21223;-71
2021/07/15 10:04:35;;;;;;;5.80;1.42;;;;;;;41.32;14.87;100648.95;1661304;83;21350;-70
2021/07/15 10:07:09;;;;;;;4.28;1.35;;;;;;;41.16;14.90;100645.69;1676765;83;21339;-67
2021/07/15 10:09:43;;;;;;;2.55;1.40;;;;;;;40.92;15.17;100648.45;1653588;84;21197;-72
2021/07/15 10:12:26;;;;;;;5.37;1.22;;;;;;;40.61;15.35;100645.69;1670322;83;21835;-70
2021/07/15 10:15:10;;;;;;;4.00;1.37;;;;;;;40.34;15.42;100644.90;1680849;82;21305;-71
2021/07/15 10:17:48;;;;;;;5.90;1.60;;;;;;;40.18;15.30;100649.83;1678264;83;21774;-71
2021/07/15 10:20:24;;;;;;;6.78;1.55;;;;;;;40.04;15.66;100650.56;1677512;82;21281;-72
2021/07/15 10:22:58;;;;;;;4.28;1.40;;;;;;;39.95;15.45;100649.17;1678640;83;21247;-71
2021/07/15 10:25:31;;;;;;;3.35;1.65;;;;;;;39.88;15.43;100647.48;1654384;84;21295;-69
2021/07/15 10:28:05;;;;;;;5.87;1.55;;;;;;;39.75;15.77;100647.60;1679350;83;21307;-71
2021/07/15 10:30:38;;;;;;;3.70;1.50;;;;;;;39.64;15.80;100643.82;1652961;85;21842;-67
2021/07/15 10:33:12;;;;;;;4.33;1.32;;;;;;;39.57;16.10;100638.53;1645466;84;21375;-71
2021/07/15 10:35:47;;;;;;;1.20;1.02;;;;;;;39.45;15.69;100641.89;1673668;83;21335;-72
2021/07/15 10:38:22;;;;;;;11.05;1.80;;;;;;;39.27;15.80;100631.18;1663852;83;22453;-72
2021/07/15 10:40:57;;;;;;;2.70;1.47;;;;;;;39.08;16.50;100632.23;1658159;84;21359;-70
2021/07/15 10:43:32;;;;;;;4.03;1.27;;;;;;;38.82;16.54;100634.59;1654541;82;21787;-69
2021/07/15 10:46:07;;;;;;;3.77;1.50;;;;;;;38.45;16.93;100633.08;1669984;83;22188;-67
2021/07/15 10:48:40;;;;;;;4.87;1.35;;;;;;;38.19;17.36;100623.86;1671641;83;21236;-70
2021/07/15 10:51:13;;;;;;;4.08;1.27;;;;;;;37.99;16.54;100617.48;1681067;83;21872;-65
2021/07/15 10:53:47;;;;;;;3.98;1.12;;;;;;;37.89;17.32;100620.45;1643404;84;21190;-68
2021/07/15 10:56:21;;;;;;;6.22;1.32;;;;;;;37.85;17.15;100616.17;1621715;86;21319;-66
2021/07/15 10:58:56;;;;;;;3.62;1.40;;;;;;;37.81;17.06;100618.44;1627157;86;21275;-68
2021/07/15 11:01:41;;;;;;;2.33;1.32;;;;;;;37.76;17.12;100607.06;1631889;85;21809;-68
2021/07/15 11:04:23;;;;;;;5.30;1.15;;;;;;;37.72;17.66;100611.51;1632288;86;21342;-67
2021/07/15 11:07:02;;;;;;;8.28;2.10;;;;;;;37.64;17.03;100607.58;1624477;86;21271;-67
2021/07/15 11:09:37;;;;;;;16.00;2.12;;;;;;;37.52;17.35;100610.02;1639592;84;21216;-69
2021/07/15 11:12:38;;;;;;;43.48;3.20;;;;;;;37.42;16.96;100606.16;1626466;85;21421;-69
2021/07/15 11:15:13;;;;;;;18.95;1.77;;;;;;;37.38;17.03;100601.05;1609296;85;21223;-68
2021/07/15 11:17:50;;;;;;;8.95;1.50;;;;;;;37.34;16.98;100601.93;1680050;83;21840;-69
2021/07/15 11:20:32;;;;;;;7.15;1.40;;;;;;;37.33;17.50;100603.06;1665251;84;21184;-68
2021/07/15 11:23:20;;;;;;;8.28;1.90;;;;;;;37.27;17.51;100596.89;1681426;82;21294;-68
2021/07/15 11:25:53;;;;;;;2.92;1.40;;;;;;;37.10;17.42;100598.05;1678025;82;21235;-71
2021/07/15 11:28:27;;;;;;;7.40;1.50;;;;;;;36.87;17.37;100586.20;1678055;83;21556;-68
2021/07/15 11:30:59;;;;;;;;;;;;;;;36.73;17.50;100589.47;1687533;83;21182;-72
2021/07/15 11:33:33;;;;;;;2.72;1.20;;;;;;;36.62;17.57;100585.28;1678660;83;20217;-69
2021/07/15 11:36:12;;;;;;;4.87;1.95;;;;;;;36.59;18.52;100589.97;1663641;83;21318;-70
2021/07/15 11:38:58;;;;;;;7.03;1.40;;;;;;;36.64;18.75;100590.47;1677236;83;21209;-67
2021/07/15 11:41:48;;;;;;;3.10;1.20;;;;;;;36.70;19.31;100585.97;1670766;82;21178;-68
2021/07/15 11:44:22;;;;;;;3.25;1.32;;;;;;;36.76;19.17;100579.30;1681988;83;22052;-68
2021/07/15 11:46:57;;;;;;;7.17;1.27;;;;;;;36.80;19.04;100584.42;1679545;83;22372;-68
2021/07/15 11:49:33;;;;;;;3.22;1.17;;;;;;;36.83;19.27;100581.06;1668436;83;21322;-67
2021/07/15 11:52:06;;;;;;;6.00;1.42;;;;;;;36.89;19.00;100577.70;1648656;83;21237;-68
2021/07/15 11:54:48;;;;;;;2.47;1.35;;;;;;;36.89;19.22;100576.33;1666293;83;21193;-67
2021/07/15 11:57:23;;;;;;;3.25;1.40;;;;;;;36.87;18.76;100578.56;1675016;83;21312;-70
2021/07/15 12:00:11;;;;;;;3.95;1.30;;;;;;;36.85;19.16;100578.84;1675929;82;21382;-72
2021/07/15 12:02:46;;;;;;;2.55;1.00;;;;;;;36.86;19.33;100573.65;1684188;83;21387;-68